Time;durP1;ratioP1;P1;durP2;ratioP2;P2;SDS_P1;SDS_P2;PMS_P1;PMS_P2;Temp;Humidity;BMP_temperature;BMP_pressure;BME280_temperature;BME280_humidity;BME280_pressure;Samples;Min_cycle;Max_cycle;Signal;HPM_P1;HPM_P2
2021/09/13 00:08:46;;;;;;;6.97;4.82;;;;;;;14.89;83.93;100594.19;20668406;28;20054;-72
2021/09/13 00:18:48;;;;;;;7.90;5.60;;;;;;;14.76;84.76;100598.13;20668193;28;20046;-71
2021/09/13 00:28:50;;;;;;;9.50;5.25;;;;;;;14.62;84.58;100590.63;20667571;28;20104;-71
2021/09/13 00:38:54;;;;;;;8.10;5.13;;;;;;;14.58;83.92;100583.69;20666094;28;20046;-71
2021/09/13 00:59:20;;;;;;;7.73;5.67;;;;;;;14.47;84.64;100581.34;20571702;23;20122;-78
2021/09/13 01:09:22;;;;;;;6.30;4.75;;;;;;;14.41;84.74;100581.50;20680411;28;20047;-80
2021/09/13 01:19:24;;;;;;;10.25;5.55;;;;;;;14.26;85.41;100584.56;20696235;28;20157;-79
2021/09/13 01:29:27;;;;;;;6.70;4.97;;;;;;;14.19;84.50;100570.72;20695006;28;20072;-80
2021/09/13 01:39:29;;;;;;;7.82;5.28;;;;;;;13.97;85.23;100554.66;20692536;28;20077;-79
2021/09/13 01:49:31;;;;;;;11.70;5.65;;;;;;;13.86;85.85;100559.34;20695998;28;20112;-80
2021/09/13 01:59:33;;;;;;;8.07;6.00;;;;;;;13.79;86.19;100550.72;20740760;28;20075;-79
2021/09/13 02:09:34;;;;;;;12.40;6.60;;;;;;;13.89;86.48;100547.84;20774113;28;20042;-80
2021/09/13 02:19:36;;;;;;;13.25;6.70;;;;;;;13.94;86.49;100546.84;20773184;28;20054;-80
2021/09/13 02:29:38;;;;;;;11.73;6.55;;;;;;;13.96;85.93;100546.81;20777026;28;20053;-79
2021/09/13 02:39:40;;;;;;;8.93;5.72;;;;;;;13.85;86.41;100555.00;20764123;28;20100;-79
2021/09/13 02:49:42;;;;;;;8.00;6.00;;;;;;;13.85;86.49;100561.13;20762092;28;20080;-80
2021/09/13 02:59:44;;;;;;;9.95;6.38;;;;;;;13.73;86.14;100563.19;20757942;28;20474;-79
2021/09/13 03:09:46;;;;;;;9.63;6.32;;;;;;;13.52;87.15;100557.59;20755896;28;20046;-80
2021/09/13 03:19:48;;;;;;;9.68;6.53;;;;;;;13.46;86.52;100557.75;20755751;28;20060;-80
2021/09/13 03:29:50;;;;;;;7.68;5.50;;;;;;;13.40;85.93;100557.88;20759094;28;20112;-79
2021/09/13 03:39:51;;;;;;;10.48;6.15;;;;;;;13.34;86.04;100553.66;20772501;28;20104;-79
2021/09/13 03:49:53;;;;;;;10.20;6.03;;;;;;;13.37;85.81;100552.72;20756325;28;20077;-80
2021/09/13 03:59:55;;;;;;;10.23;5.75;;;;;;;13.34;85.63;100555.41;20772711;28;20064;-80
2021/09/13 04:20:17;;;;;;;11.63;6.55;;;;;;;13.52;84.70;100554.97;20780486;28;20129;-80
2021/09/13 04:30:21;;;;;;;8.65;5.60;;;;;;;13.56;84.41;100555.75;20784941;28;20493;-80
2021/09/13 04:40:23;;;;;;;15.25;6.57;;;;;;;13.53;84.84;100553.19;20780060;28;20080;-80
2021/09/13 04:50:24;;;;;;;10.35;6.38;;;;;;;13.49;84.18;100547.13;20762607;28;20042;-80
2021/09/13 05:00:26;;;;;;;10.93;6.28;;;;;;;13.53;83.44;100551.41;20770980;28;20046;-79
2021/09/13 05:10:28;;;;;;;10.00;6.28;;;;;;;13.47;83.04;100543.69;20780038;28;20050;-79
2021/09/13 05:20:30;;;;;;;12.45;7.53;;;;;;;13.38;83.07;100538.66;20779431;28;20042;-80
2021/09/13 05:30:32;;;;;;;13.30;7.10;;;;;;;13.22;84.25;100553.06;20778537;28;20049;-80
2021/09/13 05:40:39;;;;;;;13.87;7.23;;;;;;;13.26;84.66;100562.63;20780043;28;20049;-80
2021/09/13 05:50:42;;;;;;;14.13;7.67;;;;;;;13.41;84.29;100566.63;20806513;28;20403;-80
2021/09/13 06:00:44;;;;;;;14.25;9.38;;;;;;;13.64;84.00;100566.91;20812670;28;20073;-80
2021/09/13 06:10:46;;;;;;;16.73;9.52;;;;;;;13.84;83.03;100580.41;20792458;28;20136;-80
2021/09/13 06:20:48;;;;;;;14.85;9.07;;;;;;;14.04;82.57;100595.72;20820230;28;20108;-81
2021/09/13 06:30:49;;;;;;;14.93;9.65;;;;;;;14.29;81.44;100598.53;20759812;28;20046;-80
2021/09/13 06:40:52;;;;;;;12.70;7.70;;;;;;;14.44;81.41;100607.78;20760817;28;20125;-81
2021/09/13 06:50:54;;;;;;;12.57;7.63;;;;;;;14.69;79.85;100609.72;20759426;28;20097;-81
2021/09/13 07:00:57;;;;;;;12.05;6.95;;;;;;;14.85;78.78;100596.06;20754453;28;20038;-80
2021/09/13 07:11:01;;;;;;;13.25;8.60;;;;;;;15.09;78.94;100607.63;20739771;23;20049;-72
2021/09/13 07:21:03;;;;;;;12.67;7.43;;;;;;;15.28;77.70;100596.47;20757825;28;20404;-72
2021/09/13 07:31:06;;;;;;;13.35;7.50;;;;;;;15.61;77.78;100595.38;20819435;28;20514;-72
2021/09/13 07:41:08;;;;;;;14.15;7.68;;;;;;;15.79;77.11;100604.50;20774407;28;20050;-72
2021/09/13 07:51:10;;;;;;;13.50;7.32;;;;;;;16.07;76.84;100614.97;20737195;28;20061;-72
2021/09/13 08:01:12;;;;;;;13.05;6.80;;;;;;;16.47;75.45;100618.84;20736511;28;20092;-72
2021/09/13 08:11:14;;;;;;;12.85;6.30;;;;;;;17.06;73.98;100623.69;20747768;28;20076;-72
2021/09/13 08:21:19;;;;;;;11.77;6.22;;;;;;;17.17;72.81;100632.06;20827337;28;20056;-72
2021/09/13 08:31:20;;;;;;;10.77;5.70;;;;;;;17.65;71.69;100627.50;20831279;28;20046;-72
2021/09/13 08:41:22;;;;;;;14.57;5.97;;;;;;;18.00;69.98;100628.69;20830680;28;20392;-72
2021/09/13 08:51:30;;;;;;;9.18;4.97;;;;;;;18.24;68.85;100637.38;20830468;28;20050;-72
2021/09/13 09:01:32;;;;;;;10.50;5.25;;;;;;;18.72;67.52;100638.81;20828833;28;20495;-71
2021/09/13 09:12:02;;;;;;;7.38;4.72;;;;;;;19.01;65.72;100645.41;20812533;28;20050;-71
2021/09/13 09:22:17;;;;;;;10.25;4.82;;;;;;;19.46;64.73;100639.72;20746057;28;20080;-71
2021/09/13 09:32:23;;;;;;;7.07;3.72;;;;;;;19.95;63.21;100628.47;20744562;28;20050;-70
2021/09/13 09:42:30;;;;;;;8.15;4.10;;;;;;;20.00;61.99;100631.75;20742191;28;20045;-71
2021/09/13 09:52:32;;;;;;;10.93;4.38;;;;;;;20.03;61.69;100620.97;20743730;28;20546;-71
2021/09/13 10:02:41;;;;;;;8.13;4.65;;;;;;;20.48;60.71;100612.41;20741439;28;20108;-71
2021/09/13 10:12:43;;;;;;;9.18;4.78;;;;;;;21.06;59.97;100592.41;20765117;28;20045;-71
2021/09/13 10:22:46;;;;;;;9.23;4.93;;;;;;;21.34;57.96;100581.06;20821636;28;20045;-71
2021/09/13 10:33:08;;;;;;;7.38;4.05;;;;;;;21.25;59.28;100569.09;20821456;28;20042;-72
2021/09/13 10:43:18;;;;;;;8.77;3.92;;;;;;;21.60;57.06;100560.88;20820704;28;20108;-72
2021/09/13 10:53:22;;;;;;;6.00;2.88;;;;;;;21.69;56.47;100555.03;20820242;28;20123;-71
2021/09/13 11:03:28;;;;;;;9.00;4.38;;;;;;;22.07;55.73;100545.66;20818709;28;20049;-72
2021/09/13 11:13:31;;;;;;;5.35;2.80;;;;;;;21.99;56.12;100535.47;20788661;28;20053;-72
2021/09/13 11:23:33;;;;;;;7.18;4.20;;;;;;;22.26;54.27;100528.47;20737995;28;20062;-72
2021/09/13 11:33:38;;;;;;;6.55;3.35;;;;;;;22.44;54.92;100509.59;20736226;28;20038;-71
2021/09/13 11:44:06;;;;;;;10.13;4.93;;;;;;;22.53;54.72;100509.88;20736453;28;20049;-72
2021/09/13 11:54:08;;;;;;;8.05;4.13;;;;;;;22.79;54.21;100510.84;20741943;28;20058;-72
2021/09/13 12:04:20;;;;;;;8.48;4.97;;;;;;;22.68;54.90;100508.03;20751419;28;20050;-72
2021/09/13 12:14:22;;;;;;;8.30;4.20;;;;;;;22.88;54.85;100488.03;20788823;28;20096;-71
2021/09/13 12:24:24;;;;;;;7.03;3.55;;;;;;;22.90;54.16;100471.94;20831721;28;20041;-71
2021/09/13 12:34:26;;;;;;;5.35;3.22;;;;;;;23.53;52.23;100463.25;20831653;28;20556;-72
2021/09/13 12:44:28;;;;;;;6.57;3.35;;;;;;;23.47;53.03;100447.63;20831100;28;20111;-72
2021/09/13 12:54:35;;;;;;;5.70;3.85;;;;;;;23.72;53.29;100422.78;20829308;28;20050;-72
2021/09/13 13:04:38;;;;;;;6.90;3.40;;;;;;;24.07;51.81;100409.56;20828586;28;20411;-71
2021/09/13 13:14:40;;;;;;;9.77;4.10;;;;;;;23.96;52.04;100401.47;20788507;28;20483;-71
2021/09/13 13:24:41;;;;;;;13.35;4.93;;;;;;;23.96;52.27;100393.44;20745785;28;20058;-72
2021/09/13 13:34:43;;;;;;;7.68;3.88;;;;;;;23.97;51.64;100400.50;20745385;28;20340;-72
2021/09/13 13:44:45;;;;;;;5.95;3.10;;;;;;;24.17;51.42;100383.84;20744556;28;20434;-72
2021/09/13 13:54:47;;;;;;;5.60;3.00;;;;;;;24.06;50.92;100392.66;20744015;28;20049;-71
2021/09/13 14:04:49;;;;;;;5.97;3.20;;;;;;;24.19;50.51;100381.91;20741253;28;20100;-72
2021/09/13 14:14:51;;;;;;;5.93;2.90;;;;;;;24.19;50.60;100365.84;20783182;28;20041;-72
2021/09/13 14:24:53;;;;;;;6.78;3.78;;;;;;;24.61;49.20;100360.16;20823887;28;20103;-72
2021/09/13 14:34:54;;;;;;;8.02;3.00;;;;;;;24.48;49.76;100346.81;20822692;28;20625;-72
2021/09/13 14:44:56;;;;;;;6.82;2.88;;;;;;;24.33;49.69;100344.28;20823268;28;20056;-72
2021/09/13 14:54:58;;;;;;;6.45;2.90;;;;;;;24.49;49.05;100340.53;20821868;28;20115;-71
2021/09/13 15:05:00;;;;;;;8.00;2.90;;;;;;;24.31;50.53;100342.72;20820031;28;20123;-72
2021/09/13 15:15:03;;;;;;;4.88;3.10;;;;;;;24.29;50.05;100324.09;20777886;28;20396;-72
2021/09/13 15:25:07;;;;;;;5.93;3.20;;;;;;;24.33;49.76;100325.56;20741453;28;20052;-73
2021/09/13 15:35:10;;;;;;;5.75;3.55;;;;;;;24.75;48.15;100311.78;20753534;28;20049;-71
2021/09/13 15:45:12;;;;;;;7.20;3.22;;;;;;;24.44;48.71;100321.28;20754240;28;20054;-71
2021/09/13 15:55:15;;;;;;;9.70;3.63;;;;;;;24.50;49.77;100326.16;20752140;28;20050;-72
2021/09/13 16:05:17;;;;;;;5.22;2.85;;;;;;;24.43;49.62;100335.59;20752691;28;20052;-72
2021/09/13 16:15:21;;;;;;;5.13;2.63;;;;;;;24.34;50.31;100331.78;20797468;28;20625;-72
2021/09/13 16:25:22;;;;;;;;;;;;;;;24.05;51.07;100328.56;20833569;28;20103;-72
2021/09/13 16:35:25;;;;;;;7.10;3.85;;;;;;;23.82;52.30;100329.41;20831649;28;20380;-72
2021/09/13 16:45:27;;;;;;;11.88;4.30;;;;;;;23.70;53.30;100315.06;20829344;28;20045;-72
2021/09/13 16:55:29;;;;;;;7.13;4.00;;;;;;;23.53;53.23;100334.97;20830193;28;20426;-72
2021/09/13 17:05:31;;;;;;;11.60;4.13;;;;;;;23.23;54.15;100325.44;20829205;28;20095;-71
2021/09/13 17:15:33;;;;;;;5.80;2.75;;;;;;;22.91;57.42;100326.81;20781731;28;20046;-71
2021/09/13 17:25:35;;;;;;;7.65;2.95;;;;;;;22.42;57.67;100330.06;20747880;28;20423;-71
2021/09/13 17:35:37;;;;;;;7.53;3.00;;;;;;;22.08;58.15;100342.91;20745736;28;20052;-71
2021/09/13 17:45:38;;;;;;;6.13;3.10;;;;;;;21.84;57.51;100320.47;20744634;28;20107;-71
2021/09/13 17:55:41;;;;;;;6.78;3.13;;;;;;;21.57;58.29;100326.63;20741441;28;20440;-72
2021/09/13 18:05:42;;;;;;;7.97;3.13;;;;;;;21.32;58.77;100321.06;20742717;28;20038;-71
2021/09/13 18:15:44;;;;;;;8.32;3.33;;;;;;;21.02;59.58;100329.97;20791179;28;20099;-72
2021/09/13 18:25:46;;;;;;;6.53;3.05;;;;;;;20.77;60.26;100341.22;20825549;28;20049;-71
2021/09/13 18:35:48;;;;;;;7.85;3.78;;;;;;;20.63;61.25;100338.50;20822827;28;20042;-72
2021/09/13 18:45:51;;;;;;;6.95;3.47;;;;;;;20.45;61.70;100335.91;20822175;28;20045;-71
2021/09/13 18:55:52;;;;;;;5.95;3.53;;;;;;;20.13;63.06;100342.25;20821269;28;20063;-71
2021/09/13 19:05:54;;;;;;;6.88;3.42;;;;;;;19.91;63.80;100353.19;20820363;28;20037;-72
2021/09/13 19:15:56;;;;;;;7.72;3.67;;;;;;;19.60;64.74;100356.69;20737693;28;20054;-72
2021/09/13 19:25:59;;;;;;;5.20;3.25;;;;;;;19.42;65.05;100361.13;20657552;28;20078;-72
2021/09/13 19:36:02;;;;;;;7.70;3.60;;;;;;;19.28;65.17;100368.97;20656830;28;20492;-72
2021/09/13 19:46:03;;;;;;;7.70;3.75;;;;;;;19.15;65.68;100376.69;20658149;28;20069;-72
2021/09/13 19:56:09;;;;;;;8.15;3.75;;;;;;;18.96;66.02;100380.28;20657184;28;20046;-72
2021/09/13 20:06:11;;;;;;;7.50;4.28;;;;;;;18.78;67.13;100377.69;20654355;28;20100;-71
2021/09/13 20:16:12;;;;;;;7.20;4.00;;;;;;;18.66;67.11;100371.19;20768820;28;20049;-71
2021/09/13 20:26:14;;;;;;;11.23;4.10;;;;;;;18.55;67.44;100369.06;20832849;28;20099;-72
2021/09/13 20:36:16;;;;;;;7.13;4.20;;;;;;;18.46;67.54;100358.91;20830928;28;20052;-72
2021/09/13 20:46:18;;;;;;;8.73;4.13;;;;;;;18.29;67.92;100353.56;20830255;28;20050;-72
2021/09/13 20:56:20;;;;;;;9.10;4.28;;;;;;;18.08;68.86;100364.25;20830641;28;20061;-72
2021/09/13 21:06:22;;;;;;;10.68;4.70;;;;;;;17.99;68.78;100359.41;20829345;28;20049;-71
2021/09/13 21:16:24;;;;;;;9.13;4.75;;;;;;;17.85;69.29;100349.44;20775427;28;20046;-72
2021/09/13 21:26:26;;;;;;;7.65;4.80;;;;;;;17.82;69.09;100346.06;20746289;28;20124;-71
2021/09/13 21:36:28;;;;;;;8.25;4.80;;;;;;;17.67;69.50;100345.81;20745327;28;20096;-71
2021/09/13 21:46:29;;;;;;;8.98;5.00;;;;;;;17.57;69.79;100344.53;20744000;28;20053;-72
2021/09/13 21:56:31;;;;;;;8.98;4.38;;;;;;;17.42;70.30;100351.38;20744080;28;20108;-72
2021/09/13 22:06:34;;;;;;;7.70;5.28;;;;;;;17.34;70.18;100347.34;20742801;28;20073;-72
2021/09/13 22:16:36;;;;;;;11.02;5.22;;;;;;;17.24;70.54;100346.03;20741327;28;20054;-72
2021/09/13 22:26:38;;;;;;;9.98;5.03;;;;;;;17.15;71.05;100357.88;20741185;28;20050;-72
2021/09/13 22:36:39;;;;;;;9.02;5.97;;;;;;;17.09;71.28;100345.78;20739303;28;20416;-72
2021/09/13 22:46:41;;;;;;;9.35;5.28;;;;;;;17.03;71.60;100348.69;20739411;28;20117;-72
2021/09/13 22:56:43;;;;;;;10.48;5.45;;;;;;;16.88;71.78;100344.94;20738704;28;20393;-72
2021/09/13 23:06:47;;;;;;;10.15;5.68;;;;;;;16.88;72.06;100339.63;20753177;23;20042;-81
2021/09/13 23:16:58;;;;;;;12.93;6.38;;;;;;;16.72;72.38;100332.41;20751484;28;20046;-82
2021/09/13 23:27:03;;;;;;;9.18;6.30;;;;;;;16.67;72.61;100340.50;20755379;28;20407;-82
2021/09/13 23:37:05;;;;;;;9.82;6.78;;;;;;;16.58;72.80;100325.91;20809345;28;20302;-82
2021/09/13 23:47:06;;;;;;;13.23;7.22;;;;;;;16.57;72.41;100321.50;20834299;28;20511;-82
2021/09/13 23:57:17;;;;;;;11.02;6.95;;;;;;;16.44;73.09;100315.03;20847368;28;20041;-82
